sensor_id;sensor_type;location;lat;lon;timestamp;P1;durP1;ratioP1;P2;durP2;ratioP2
80625;SDS011;69982;51.758;5.784;2024-02-14T00:00:05;4.10;;;1.60;;
80625;SDS011;69982;51.758;5.784;2024-02-14T00:03:07;4.00;;;1.70;;
80625;SDS011;69982;51.758;5.784;2024-02-14T00:06:18;3.20;;;1.40;;
80625;SDS011;69982;51.758;5.784;2024-02-14T00:09:05;4.00;;;1.70;;
80625;SDS011;69982;51.758;5.784;2024-02-14T00:12:05;4.40;;;1.20;;
80625;SDS011;69982;51.758;5.784;2024-02-14T00:15:22;4.80;;;1.70;;
80625;SDS011;69982;51.758;5.784;2024-02-14T00:18:22;3.60;;;1.90;;
80625;SDS011;69982;51.758;5.784;2024-02-14T00:21:14;4.30;;;1.30;;
80625;SDS011;69982;51.758;5.784;2024-02-14T00:24:38;4.30;;;1.20;;
80625;SDS011;69982;51.758;5.784;2024-02-14T00:30:11;5.10;;;1.80;;
80625;SDS011;69982;51.758;5.784;2024-02-14T00:34:21;3.70;;;1.40;;
80625;SDS011;69982;51.758;5.784;2024-02-14T00:38:08;3.90;;;1.80;;
80625;SDS011;69982;51.758;5.784;2024-02-14T00:40:36;3.50;;;1.40;;
80625;SDS011;69982;51.758;5.784;2024-02-14T00:44:44;3.30;;;1.50;;
80625;SDS011;69982;51.758;5.784;2024-02-14T00:47:53;4.40;;;2.20;;
80625;SDS011;69982;51.758;5.784;2024-02-14T00:51:36;5.60;;;2.00;;
80625;SDS011;69982;51.758;5.784;2024-02-14T00:54:06;4.90;;;1.80;;
80625;SDS011;69982;51.758;5.784;2024-02-14T00:56:36;4.70;;;2.10;;
80625;SDS011;69982;51.758;5.784;2024-02-14T00:59:03;6.00;;;1.80;;
80625;SDS011;69982;51.758;5.784;2024-02-14T01:01:32;5.00;;;1.70;;
80625;SDS011;69982;51.758;5.784;2024-02-14T01:03:59;4.30;;;1.90;;
80625;SDS011;69982;51.758;5.784;2024-02-14T01:06:27;4.20;;;2.20;;
80625;SDS011;69982;51.758;5.784;2024-02-14T01:08:54;6.80;;;2.40;;
80625;SDS011;69982;51.758;5.784;2024-02-14T01:11:20;4.10;;;1.70;;
80625;SDS011;69982;51.758;5.784;2024-02-14T01:13:47;5.70;;;2.20;;
80625;SDS011;69982;51.758;5.784;2024-02-14T01:16:14;6.50;;;2.00;;
80625;SDS011;69982;51.758;5.784;2024-02-14T01:18:41;4.50;;;2.10;;
80625;SDS011;69982;51.758;5.784;2024-02-14T01:21:11;6.40;;;2.10;;
80625;SDS011;69982;51.758;5.784;2024-02-14T01:23:40;5.20;;;2.20;;
80625;SDS011;69982;51.758;5.784;2024-02-14T01:26:09;4.60;;;2.20;;
80625;SDS011;69982;51.758;5.784;2024-02-14T01:28:35;7.40;;;2.30;;
80625;SDS011;69982;51.758;5.784;2024-02-14T01:31:03;6.30;;;2.30;;
80625;SDS011;69982;51.758;5.784;2024-02-14T01:33:37;4.40;;;2.00;;
80625;SDS011;69982;51.758;5.784;2024-02-14T01:36:20;7.10;;;2.00;;
80625;SDS011;69982;51.758;5.784;2024-02-14T01:38:54;6.90;;;2.70;;
80625;SDS011;69982;51.758;5.784;2024-02-14T01:41:48;4.80;;;2.50;;
80625;SDS011;69982;51.758;5.784;2024-02-14T01:44:27;4.70;;;2.10;;
80625;SDS011;69982;51.758;5.784;2024-02-14T01:47:38;5.00;;;2.30;;
80625;SDS011;69982;51.758;5.784;2024-02-14T01:50:33;3.60;;;1.50;;
80625;SDS011;69982;51.758;5.784;2024-02-14T01:54:43;5.10;;;2.50;;
80625;SDS011;69982;51.758;5.784;2024-02-14T01:58:33;6.10;;;2.60;;
80625;SDS011;69982;51.758;5.784;2024-02-14T02:36:37;5.80;;;2.00;;
80625;SDS011;69982;51.758;5.784;2024-02-14T02:39:27;5.80;;;1.80;;
80625;SDS011;69982;51.758;5.784;2024-02-14T02:42:07;4.80;;;2.10;;
80625;SDS011;69982;51.758;5.784;2024-02-14T02:45:15;6.00;;;2.80;;
80625;SDS011;69982;51.758;5.784;2024-02-14T02:47:51;5.40;;;2.00;;
80625;SDS011;69982;51.758;5.784;2024-02-14T02:50:27;7.20;;;2.10;;
80625;SDS011;69982;51.758;5.784;2024-02-14T02:52:57;6.20;;;2.20;;
80625;SDS011;69982;51.758;5.784;2024-02-14T02:55:28;6.50;;;2.00;;
80625;SDS011;69982;51.758;5.784;2024-02-14T02:58:12;8.70;;;2.50;;
80625;SDS011;69982;51.758;5.784;2024-02-14T03:00:48;5.20;;;1.80;;
80625;SDS011;69982;51.758;5.784;2024-02-14T03:03:18;4.70;;;1.70;;
80625;SDS011;69982;51.758;5.784;2024-02-14T03:06:08;5.30;;;2.20;;
80625;SDS011;69982;51.758;5.784;2024-02-14T03:09:20;6.40;;;2.00;;
80625;SDS011;69982;51.758;5.784;2024-02-14T03:11:58;5.30;;;1.80;;
80625;SDS011;69982;51.758;5.784;2024-02-14T03:14:49;4.30;;;2.30;;
80625;SDS011;69982;51.758;5.784;2024-02-14T03:17:40;6.20;;;2.20;;
80625;SDS011;69982;51.758;5.784;2024-02-14T03:20:13;5.30;;;2.20;;
80625;SDS011;69982;51.758;5.784;2024-02-14T03:22:50;4.20;;;1.70;;
80625;SDS011;69982;51.758;5.784;2024-02-14T03:25:38;4.40;;;1.80;;
80625;SDS011;69982;51.758;5.784;2024-02-14T03:28:15;5.70;;;2.40;;
80625;SDS011;69982;51.758;5.784;2024-02-14T03:30:46;5.30;;;2.20;;
80625;SDS011;69982;51.758;5.784;2024-02-14T03:33:22;5.50;;;2.30;;
80625;SDS011;69982;51.758;5.784;2024-02-14T03:35:51;4.40;;;2.10;;
80625;SDS011;69982;51.758;5.784;2024-02-14T03:38:25;4.60;;;2.40;;
80625;SDS011;69982;51.758;5.784;2024-02-14T03:41:08;7.20;;;2.40;;
80625;SDS011;69982;51.758;5.784;2024-02-14T03:43:48;6.60;;;2.20;;
80625;SDS011;69982;51.758;5.784;2024-02-14T03:46:20;5.30;;;1.90;;
80625;SDS011;69982;51.758;5.784;2024-02-14T03:50:29;6.10;;;2.50;;
80625;SDS011;69982;51.758;5.784;2024-02-14T03:52:57;7.40;;;2.10;;
80625;SDS011;69982;51.758;5.784;2024-02-14T03:55:26;7.90;;;2.40;;
80625;SDS011;69982;51.758;5.784;2024-02-14T03:57:53;7.60;;;2.40;;
80625;SDS011;69982;51.758;5.784;2024-02-14T04:00:20;5.50;;;2.50;;
80625;SDS011;69982;51.758;5.784;2024-02-14T04:02:49;7.30;;;2.50;;
80625;SDS011;69982;51.758;5.784;2024-02-14T04:05:17;5.10;;;2.60;;
80625;SDS011;69982;51.758;5.784;2024-02-14T04:07:50;5.40;;;2.50;;
80625;SDS011;69982;51.758;5.784;2024-02-14T04:10:18;4.90;;;2.40;;
80625;SDS011;69982;51.758;5.784;2024-02-14T04:12:45;7.00;;;2.60;;
80625;SDS011;69982;51.758;5.784;2024-02-14T04:15:12;8.50;;;2.90;;
80625;SDS011;69982;51.758;5.784;2024-02-14T04:17:39;4.50;;;2.20;;
80625;SDS011;69982;51.758;5.784;2024-02-14T04:20:06;8.60;;;2.60;;
80625;SDS011;69982;51.758;5.784;2024-02-14T04:22:36;5.00;;;1.70;;
80625;SDS011;69982;51.758;5.784;2024-02-14T04:25:03;5.40;;;2.40;;
80625;SDS011;69982;51.758;5.784;2024-02-14T04:27:31;7.90;;;3.00;;
80625;SDS011;69982;51.758;5.784;2024-02-14T04:29:58;6.00;;;2.40;;
80625;SDS011;69982;51.758;5.784;2024-02-14T04:32:26;7.40;;;2.70;;
80625;SDS011;69982;51.758;5.784;2024-02-14T04:34:53;6.70;;;2.80;;
80625;SDS011;69982;51.758;5.784;2024-02-14T04:37:20;5.70;;;2.70;;
80625;SDS011;69982;51.758;5.784;2024-02-14T04:39:48;8.40;;;2.50;;
80625;SDS011;69982;51.758;5.784;2024-02-14T04:42:15;5.80;;;2.50;;
80625;SDS011;69982;51.758;5.784;2024-02-14T04:45:13;5.90;;;2.50;;
80625;SDS011;69982;51.758;5.784;2024-02-14T04:47:40;4.80;;;2.40;;
80625;SDS011;69982;51.758;5.784;2024-02-14T04:50:07;5.60;;;3.00;;
80625;SDS011;69982;51.758;5.784;2024-02-14T04:52:34;6.40;;;3.20;;
80625;SDS011;69982;51.758;5.784;2024-02-14T04:55:04;8.70;;;3.50;;
80625;SDS011;69982;51.758;5.784;2024-02-14T04:57:38;6.20;;;2.90;;
80625;SDS011;69982;51.758;5.784;2024-02-14T05:00:11;7.90;;;3.00;;
80625;SDS011;69982;51.758;5.784;2024-02-14T05:02:45;7.00;;;3.10;;
80625;SDS011;69982;51.758;5.784;2024-02-14T05:05:20;6.20;;;2.80;;
80625;SDS011;69982;51.758;5.784;2024-02-14T05:08:07;5.60;;;2.30;;
80625;SDS011;69982;51.758;5.784;2024-02-14T05:10:59;8.40;;;2.70;;
80625;SDS011;69982;51.758;5.784;2024-02-14T05:16:04;5.50;;;2.70;;
80625;SDS011;69982;51.758;5.784;2024-02-14T05:18:45;5.30;;;2.70;;
80625;SDS011;69982;51.758;5.784;2024-02-14T05:21:14;6.30;;;2.80;;
80625;SDS011;69982;51.758;5.784;2024-02-14T05:23:46;5.00;;;2.80;;
80625;SDS011;69982;51.758;5.784;2024-02-14T05:26:17;7.80;;;3.30;;
80625;SDS011;69982;51.758;5.784;2024-02-14T05:28:47;8.10;;;3.10;;
80625;SDS011;69982;51.758;5.784;2024-02-14T05:31:19;6.90;;;2.40;;
80625;SDS011;69982;51.758;5.784;2024-02-14T05:33:46;5.80;;;2.80;;
80625;SDS011;69982;51.758;5.784;2024-02-14T05:36:19;5.00;;;2.50;;
80625;SDS011;69982;51.758;5.784;2024-02-14T05:38:50;5.50;;;2.40;;
80625;SDS011;69982;51.758;5.784;2024-02-14T05:42:12;6.00;;;2.90;;
80625;SDS011;69982;51.758;5.784;2024-02-14T05:46:01;6.30;;;2.90;;
80625;SDS011;69982;51.758;5.784;2024-02-14T05:48:28;6.80;;;2.90;;
80625;SDS011;69982;51.758;5.784;2024-02-14T05:50:54;5.40;;;2.90;;
80625;SDS011;69982;51.758;5.784;2024-02-14T05:53:21;5.80;;;3.00;;
80625;SDS011;69982;51.758;5.784;2024-02-14T05:55:52;9.50;;;3.10;;
80625;SDS011;69982;51.758;5.784;2024-02-14T05:58:21;6.20;;;3.00;;
80625;SDS011;69982;51.758;5.784;2024-02-14T06:01:27;5.70;;;2.70;;
80625;SDS011;69982;51.758;5.784;2024-02-14T06:04:01;6.00;;;3.10;;
80625;SDS011;69982;51.758;5.784;2024-02-14T06:06:33;7.30;;;2.90;;
80625;SDS011;69982;51.758;5.784;2024-02-14T06:09:02;8.90;;;3.50;;
80625;SDS011;69982;51.758;5.784;2024-02-14T06:11:36;7.00;;;3.00;;
80625;SDS011;69982;51.758;5.784;2024-02-14T06:14:08;7.80;;;3.20;;
80625;SDS011;69982;51.758;5.784;2024-02-14T06:19:41;4.80;;;2.70;;
80625;SDS011;69982;51.758;5.784;2024-02-14T06:22:08;6.00;;;2.70;;
80625;SDS011;69982;51.758;5.784;2024-02-14T06:27:33;5.10;;;2.30;;
80625;SDS011;69982;51.758;5.784;2024-02-14T06:30:16;6.30;;;3.40;;
80625;SDS011;69982;51.758;5.784;2024-02-14T06:36:01;5.80;;;2.90;;
80625;SDS011;69982;51.758;5.784;2024-02-14T06:48:05;7.60;;;3.40;;
80625;SDS011;69982;51.758;5.784;2024-02-14T06:51:25;8.40;;;3.30;;
80625;SDS011;69982;51.758;5.784;2024-02-14T06:54:20;4.90;;;3.00;;
80625;SDS011;69982;51.758;5.784;2024-02-14T06:56:47;5.50;;;2.80;;
80625;SDS011;69982;51.758;5.784;2024-02-14T06:59:15;6.90;;;3.00;;
80625;SDS011;69982;51.758;5.784;2024-02-14T07:02:03;7.80;;;3.20;;
80625;SDS011;69982;51.758;5.784;2024-02-14T07:04:40;5.40;;;3.60;;
80625;SDS011;69982;51.758;5.784;2024-02-14T07:07:21;7.00;;;4.10;;
80625;SDS011;69982;51.758;5.784;2024-02-14T07:09:53;9.00;;;3.20;;
80625;SDS011;69982;51.758;5.784;2024-02-14T07:12:19;7.60;;;3.70;;
80625;SDS011;69982;51.758;5.784;2024-02-14T07:14:46;7.80;;;3.40;;
80625;SDS011;69982;51.758;5.784;2024-02-14T07:17:14;9.80;;;3.80;;
80625;SDS011;69982;51.758;5.784;2024-02-14T07:19:43;7.40;;;3.80;;
80625;SDS011;69982;51.758;5.784;2024-02-14T07:22:16;7.30;;;3.70;;
80625;SDS011;69982;51.758;5.784;2024-02-14T07:24:46;8.70;;;4.80;;
80625;SDS011;69982;51.758;5.784;2024-02-14T07:27:43;6.30;;;3.80;;
80625;SDS011;69982;51.758;5.784;2024-02-14T07:33:07;9.80;;;4.00;;
80625;SDS011;69982;51.758;5.784;2024-02-14T07:35:36;9.00;;;4.30;;
80625;SDS011;69982;51.758;5.784;2024-02-14T07:38:16;7.40;;;3.40;;
80625;SDS011;69982;51.758;5.784;2024-02-14T07:40:45;7.80;;;3.70;;
80625;SDS011;69982;51.758;5.784;2024-02-14T07:43:15;8.00;;;4.20;;
80625;SDS011;69982;51.758;5.784;2024-02-14T07:45:54;8.20;;;3.40;;
80625;SDS011;69982;51.758;5.784;2024-02-14T07:52:03;7.00;;;3.20;;
80625;SDS011;69982;51.758;5.784;2024-02-14T07:58:32;9.00;;;3.90;;
80625;SDS011;69982;51.758;5.784;2024-02-14T08:01:10;7.50;;;4.00;;
80625;SDS011;69982;51.758;5.784;2024-02-14T08:03:40;6.90;;;3.20;;
80625;SDS011;69982;51.758;5.784;2024-02-14T08:06:07;7.90;;;3.90;;
80625;SDS011;69982;51.758;5.784;2024-02-14T08:08:42;11.10;;;3.80;;
80625;SDS011;69982;51.758;5.784;2024-02-14T08:11:12;7.80;;;3.80;;
80625;SDS011;69982;51.758;5.784;2024-02-14T08:13:42;9.00;;;3.70;;
80625;SDS011;69982;51.758;5.784;2024-02-14T08:16:16;6.90;;;3.50;;
80625;SDS011;69982;51.758;5.784;2024-02-14T08:18:45;11.30;;;3.90;;
80625;SDS011;69982;51.758;5.784;2024-02-14T08:21:12;8.90;;;3.70;;
80625;SDS011;69982;51.758;5.784;2024-02-14T08:23:41;8.60;;;4.50;;
80625;SDS011;69982;51.758;5.784;2024-02-14T08:26:11;7.00;;;3.40;;
80625;SDS011;69982;51.758;5.784;2024-02-14T08:28:42;9.50;;;3.80;;
80625;SDS011;69982;51.758;5.784;2024-02-14T08:31:26;11.00;;;4.50;;
80625;SDS011;69982;51.758;5.784;2024-02-14T08:33:58;11.90;;;4.60;;
80625;SDS011;69982;51.758;5.784;2024-02-14T08:36:28;7.20;;;3.40;;
80625;SDS011;69982;51.758;5.784;2024-02-14T08:39:13;8.20;;;3.90;;
80625;SDS011;69982;51.758;5.784;2024-02-14T08:42:27;9.90;;;4.60;;
80625;SDS011;69982;51.758;5.784;2024-02-14T08:44:59;8.50;;;4.20;;
80625;SDS011;69982;51.758;5.784;2024-02-14T08:47:27;8.70;;;4.20;;
80625;SDS011;69982;51.758;5.784;2024-02-14T08:50:05;7.90;;;3.30;;
80625;SDS011;69982;51.758;5.784;2024-02-14T08:52:43;8.80;;;4.30;;
80625;SDS011;69982;51.758;5.784;2024-02-14T08:55:38;10.00;;;3.80;;
80625;SDS011;69982;51.758;5.784;2024-02-14T08:58:07;8.10;;;3.90;;
80625;SDS011;69982;51.758;5.784;2024-02-14T09:00:38;12.30;;;4.20;;
80625;SDS011;69982;51.758;5.784;2024-02-14T09:06:07;10.10;;;4.60;;
80625;SDS011;69982;51.758;5.784;2024-02-14T09:08:43;10.60;;;4.30;;
80625;SDS011;69982;51.758;5.784;2024-02-14T09:11:15;10.40;;;4.10;;
80625;SDS011;69982;51.758;5.784;2024-02-14T09:13:52;8.40;;;3.40;;
80625;SDS011;69982;51.758;5.784;2024-02-14T09:17:00;9.10;;;4.00;;
80625;SDS011;69982;51.758;5.784;2024-02-14T09:19:47;7.10;;;3.60;;
80625;SDS011;69982;51.758;5.784;2024-02-14T09:22:39;9.30;;;4.70;;
80625;SDS011;69982;51.758;5.784;2024-02-14T09:25:20;9.70;;;4.40;;
80625;SDS011;69982;51.758;5.784;2024-02-14T09:28:15;12.80;;;4.00;;
80625;SDS011;69982;51.758;5.784;2024-02-14T09:30:42;9.10;;;3.70;;
80625;SDS011;69982;51.758;5.784;2024-02-14T09:33:20;9.50;;;4.00;;
80625;SDS011;69982;51.758;5.784;2024-02-14T09:36:19;7.70;;;3.70;;
80625;SDS011;69982;51.758;5.784;2024-02-14T09:38:53;10.20;;;2.80;;
80625;SDS011;69982;51.758;5.784;2024-02-14T09:41:25;8.90;;;3.80;;
80625;SDS011;69982;51.758;5.784;2024-02-14T09:44:01;7.90;;;4.00;;
80625;SDS011;69982;51.758;5.784;2024-02-14T09:46:31;11.10;;;4.50;;
80625;SDS011;69982;51.758;5.784;2024-02-14T09:49:11;8.90;;;4.00;;
80625;SDS011;69982;51.758;5.784;2024-02-14T09:51:44;8.20;;;3.60;;
80625;SDS011;69982;51.758;5.784;2024-02-14T09:54:14;7.00;;;2.80;;
80625;SDS011;69982;51.758;5.784;2024-02-14T09:59:27;8.20;;;3.50;;
80625;SDS011;69982;51.758;5.784;2024-02-14T10:02:03;8.80;;;3.90;;
80625;SDS011;69982;51.758;5.784;2024-02-14T10:04:34;9.30;;;4.60;;
80625;SDS011;69982;51.758;5.784;2024-02-14T10:07:24;8.90;;;4.60;;
80625;SDS011;69982;51.758;5.784;2024-02-14T10:10:23;11.00;;;4.50;;
80625;SDS011;69982;51.758;5.784;2024-02-14T10:12:58;11.20;;;4.20;;
80625;SDS011;69982;51.758;5.784;2024-02-14T10:15:52;10.30;;;3.60;;
80625;SDS011;69982;51.758;5.784;2024-02-14T10:21:08;8.90;;;3.60;;
80625;SDS011;69982;51.758;5.784;2024-02-14T10:23:34;10.20;;;3.90;;
80625;SDS011;69982;51.758;5.784;2024-02-14T10:26:11;7.20;;;3.70;;
80625;SDS011;69982;51.758;5.784;2024-02-14T10:28:42;8.10;;;3.80;;
80625;SDS011;69982;51.758;5.784;2024-02-14T10:31:12;11.20;;;3.90;;
80625;SDS011;69982;51.758;5.784;2024-02-14T10:33:39;10.80;;;3.40;;
80625;SDS011;69982;51.758;5.784;2024-02-14T10:36:09;7.40;;;3.30;;
80625;SDS011;69982;51.758;5.784;2024-02-14T10:38:41;10.60;;;3.80;;
80625;SDS011;69982;51.758;5.784;2024-02-14T10:41:08;7.70;;;3.60;;
80625;SDS011;69982;51.758;5.784;2024-02-14T10:43:40;10.60;;;4.00;;
80625;SDS011;69982;51.758;5.784;2024-02-14T10:46:40;7.40;;;3.30;;
80625;SDS011;69982;51.758;5.784;2024-02-14T10:49:04;12.70;;;4.80;;
80625;SDS011;69982;51.758;5.784;2024-02-14T10:51:33;8.40;;;3.80;;
80625;SDS011;69982;51.758;5.784;2024-02-14T10:54:10;7.20;;;2.90;;
80625;SDS011;69982;51.758;5.784;2024-02-14T10:56:41;6.90;;;3.20;;
80625;SDS011;69982;51.758;5.784;2024-02-14T10:59:15;6.60;;;3.00;;
80625;SDS011;69982;51.758;5.784;2024-02-14T11:01:48;6.90;;;2.90;;
80625;SDS011;69982;51.758;5.784;2024-02-14T11:04:16;6.00;;;3.20;;
80625;SDS011;69982;51.758;5.784;2024-02-14T11:07:08;6.50;;;2.90;;
80625;SDS011;69982;51.758;5.784;2024-02-14T11:09:41;8.70;;;3.60;;
80625;SDS011;69982;51.758;5.784;2024-02-14T11:12:14;6.70;;;3.40;;
80625;SDS011;69982;51.758;5.784;2024-02-14T11:15:52;8.40;;;3.30;;
80625;SDS011;69982;51.758;5.784;2024-02-14T11:18:30;9.10;;;3.20;;
80625;SDS011;69982;51.758;5.784;2024-02-14T11:21:02;9.10;;;3.50;;
80625;SDS011;69982;51.758;5.784;2024-02-14T11:23:32;8.70;;;3.40;;
80625;SDS011;69982;51.758;5.784;2024-02-14T11:26:06;7.30;;;3.10;;
80625;SDS011;69982;51.758;5.784;2024-02-14T11:28:36;19.10;;;17.20;;
80625;SDS011;69982;51.758;5.784;2024-02-14T11:31:08;8.00;;;3.00;;
80625;SDS011;69982;51.758;5.784;2024-02-14T11:33:39;6.90;;;3.00;;
80625;SDS011;69982;51.758;5.784;2024-02-14T11:36:10;5.90;;;2.70;;
80625;SDS011;69982;51.758;5.784;2024-02-14T11:38:40;7.30;;;2.80;;
80625;SDS011;69982;51.758;5.784;2024-02-14T11:41:07;5.10;;;2.40;;
80625;SDS011;69982;51.758;5.784;2024-02-14T11:43:50;6.10;;;2.80;;
80625;SDS011;69982;51.758;5.784;2024-02-14T11:46:17;8.30;;;2.70;;
80625;SDS011;69982;51.758;5.784;2024-02-14T11:48:44;8.10;;;3.60;;
80625;SDS011;69982;51.758;5.784;2024-02-14T11:51:16;10.60;;;3.30;;
80625;SDS011;69982;51.758;5.784;2024-02-14T11:53:44;5.10;;;2.60;;
80625;SDS011;69982;51.758;5.784;2024-02-14T11:56:14;6.60;;;2.80;;
80625;SDS011;69982;51.758;5.784;2024-02-14T11:58:41;6.00;;;2.90;;
80625;SDS011;69982;51.758;5.784;2024-02-14T12:01:10;5.40;;;2.80;;
80625;SDS011;69982;51.758;5.784;2024-02-14T12:06:06;6.80;;;2.40;;
80625;SDS011;69982;51.758;5.784;2024-02-14T12:08:36;4.90;;;2.10;;
80625;SDS011;69982;51.758;5.784;2024-02-14T12:11:07;4.90;;;2.10;;
80625;SDS011;69982;51.758;5.784;2024-02-14T12:13:41;5.00;;;2.00;;
80625;SDS011;69982;51.758;5.784;2024-02-14T12:16:10;6.00;;;2.70;;
80625;SDS011;69982;51.758;5.784;2024-02-14T12:18:40;6.60;;;2.60;;
80625;SDS011;69982;51.758;5.784;2024-02-14T12:21:07;4.20;;;2.30;;
80625;SDS011;69982;51.758;5.784;2024-02-14T12:23:34;5.40;;;2.90;;
80625;SDS011;69982;51.758;5.784;2024-02-14T12:26:04;5.00;;;2.50;;
80625;SDS011;69982;51.758;5.784;2024-02-14T12:28:41;6.90;;;3.00;;
80625;SDS011;69982;51.758;5.784;2024-02-14T12:31:12;5.10;;;2.60;;
80625;SDS011;69982;51.758;5.784;2024-02-14T12:33:49;4.90;;;2.80;;
80625;SDS011;69982;51.758;5.784;2024-02-14T12:36:19;4.20;;;2.30;;
80625;SDS011;69982;51.758;5.784;2024-02-14T12:38:47;5.90;;;3.00;;
80625;SDS011;69982;51.758;5.784;2024-02-14T12:41:19;5.40;;;2.90;;
80625;SDS011;69982;51.758;5.784;2024-02-14T12:43:46;4.50;;;2.70;;
80625;SDS011;69982;51.758;5.784;2024-02-14T12:46:13;4.60;;;2.60;;
80625;SDS011;69982;51.758;5.784;2024-02-14T12:48:39;5.50;;;3.00;;
80625;SDS011;69982;51.758;5.784;2024-02-14T12:51:08;6.00;;;3.00;;
80625;SDS011;69982;51.758;5.784;2024-02-14T12:53:47;5.40;;;2.80;;
80625;SDS011;69982;51.758;5.784;2024-02-14T12:56:14;5.70;;;3.00;;
80625;SDS011;69982;51.758;5.784;2024-02-14T12:58:40;5.10;;;3.00;;
80625;SDS011;69982;51.758;5.784;2024-02-14T13:01:11;5.10;;;2.60;;
80625;SDS011;69982;51.758;5.784;2024-02-14T13:03:40;4.30;;;2.70;;
80625;SDS011;69982;51.758;5.784;2024-02-14T13:06:10;4.20;;;2.30;;
80625;SDS011;69982;51.758;5.784;2024-02-14T13:08:41;5.60;;;3.30;;
80625;SDS011;69982;51.758;5.784;2024-02-14T13:11:08;6.30;;;3.40;;
80625;SDS011;69982;51.758;5.784;2024-02-14T13:13:35;8.10;;;3.50;;
80625;SDS011;69982;51.758;5.784;2024-02-14T13:16:09;5.20;;;3.40;;
80625;SDS011;69982;51.758;5.784;2024-02-14T13:18:39;5.20;;;3.20;;
80625;SDS011;69982;51.758;5.784;2024-02-14T13:21:13;5.40;;;3.00;;
80625;SDS011;69982;51.758;5.784;2024-02-14T13:23:42;4.50;;;2.60;;
80625;SDS011;69982;51.758;5.784;2024-02-14T13:26:10;6.70;;;2.90;;
80625;SDS011;69982;51.758;5.784;2024-02-14T13:28:39;5.20;;;2.60;;
80625;SDS011;69982;51.758;5.784;2024-02-14T13:31:07;5.40;;;2.80;;
80625;SDS011;69982;51.758;5.784;2024-02-14T13:33:42;5.90;;;2.80;;
80625;SDS011;69982;51.758;5.784;2024-02-14T13:36:14;5.20;;;3.20;;
80625;SDS011;69982;51.758;5.784;2024-02-14T13:38:44;5.40;;;2.80;;
80625;SDS011;69982;51.758;5.784;2024-02-14T13:41:12;6.50;;;3.00;;
80625;SDS011;69982;51.758;5.784;2024-02-14T13:43:41;6.80;;;3.00;;
80625;SDS011;69982;51.758;5.784;2024-02-14T13:46:09;4.50;;;2.60;;
80625;SDS011;69982;51.758;5.784;2024-02-14T13:48:41;4.00;;;2.00;;
80625;SDS011;69982;51.758;5.784;2024-02-14T13:51:17;4.40;;;2.00;;
80625;SDS011;69982;51.758;5.784;2024-02-14T13:54:12;5.10;;;2.00;;
80625;SDS011;69982;51.758;5.784;2024-02-14T13:56:43;3.70;;;2.10;;
80625;SDS011;69982;51.758;5.784;2024-02-14T13:59:10;4.00;;;1.90;;
80625;SDS011;69982;51.758;5.784;2024-02-14T14:01:46;4.60;;;2.30;;
80625;SDS011;69982;51.758;5.784;2024-02-14T14:04:35;3.80;;;1.90;;
80625;SDS011;69982;51.758;5.784;2024-02-14T14:07:11;4.50;;;2.10;;
80625;SDS011;69982;51.758;5.784;2024-02-14T14:09:42;5.00;;;2.20;;
80625;SDS011;69982;51.758;5.784;2024-02-14T14:12:18;3.90;;;1.60;;
80625;SDS011;69982;51.758;5.784;2024-02-14T14:15:05;3.50;;;1.80;;
80625;SDS011;69982;51.758;5.784;2024-02-14T14:17:41;4.80;;;1.50;;
80625;SDS011;69982;51.758;5.784;2024-02-14T14:20:09;3.40;;;1.60;;
80625;SDS011;69982;51.758;5.784;2024-02-14T14:22:42;3.60;;;1.70;;
80625;SDS011;69982;51.758;5.784;2024-02-14T14:25:12;4.90;;;1.70;;
80625;SDS011;69982;51.758;5.784;2024-02-14T14:27:58;4.80;;;1.80;;
80625;SDS011;69982;51.758;5.784;2024-02-14T14:30:39;4.40;;;1.90;;
80625;SDS011;69982;51.758;5.784;2024-02-14T14:33:08;3.50;;;1.80;;
80625;SDS011;69982;51.758;5.784;2024-02-14T14:35:35;3.50;;;1.50;;
80625;SDS011;69982;51.758;5.784;2024-02-14T14:38:09;3.50;;;1.50;;
80625;SDS011;69982;51.758;5.784;2024-02-14T14:40:40;3.80;;;1.10;;
80625;SDS011;69982;51.758;5.784;2024-02-14T14:43:10;2.60;;;1.30;;
80625;SDS011;69982;51.758;5.784;2024-02-14T14:45:51;3.20;;;1.30;;
80625;SDS011;69982;51.758;5.784;2024-02-14T14:48:25;3.30;;;1.40;;
80625;SDS011;69982;51.758;5.784;2024-02-14T14:50:57;2.90;;;1.30;;
80625;SDS011;69982;51.758;5.784;2024-02-14T14:53:31;5.70;;;1.50;;
80625;SDS011;69982;51.758;5.784;2024-02-14T14:56:29;3.10;;;1.20;;
80625;SDS011;69982;51.758;5.784;2024-02-14T14:59:10;3.00;;;1.30;;
80625;SDS011;69982;51.758;5.784;2024-02-14T15:01:50;3.00;;;1.30;;
80625;SDS011;69982;51.758;5.784;2024-02-14T15:04:22;3.90;;;1.50;;
80625;SDS011;69982;51.758;5.784;2024-02-14T15:06:50;3.80;;;1.50;;
80625;SDS011;69982;51.758;5.784;2024-02-14T15:09:20;3.80;;;1.80;;
80625;SDS011;69982;51.758;5.784;2024-02-14T15:12:13;4.70;;;2.10;;
80625;SDS011;69982;51.758;5.784;2024-02-14T15:14:40;4.20;;;1.80;;
80625;SDS011;69982;51.758;5.784;2024-02-14T15:17:14;3.30;;;1.50;;
80625;SDS011;69982;51.758;5.784;2024-02-14T15:20:07;5.30;;;2.10;;
80625;SDS011;69982;51.758;5.784;2024-02-14T15:22:35;3.60;;;1.50;;
80625;SDS011;69982;51.758;5.784;2024-02-14T15:25:19;4.50;;;2.00;;
80625;SDS011;69982;51.758;5.784;2024-02-14T15:28:12;4.50;;;2.00;;
80625;SDS011;69982;51.758;5.784;2024-02-14T15:30:54;3.90;;;1.50;;
80625;SDS011;69982;51.758;5.784;2024-02-14T15:34:16;3.60;;;1.50;;
80625;SDS011;69982;51.758;5.784;2024-02-14T15:36:47;4.10;;;1.50;;
80625;SDS011;69982;51.758;5.784;2024-02-14T15:39:25;4.60;;;1.80;;
80625;SDS011;69982;51.758;5.784;2024-02-14T15:42:00;3.10;;;1.30;;
80625;SDS011;69982;51.758;5.784;2024-02-14T15:44:32;4.10;;;1.30;;
80625;SDS011;69982;51.758;5.784;2024-02-14T15:47:09;5.40;;;1.60;;
80625;SDS011;69982;51.758;5.784;2024-02-14T15:49:47;3.40;;;1.70;;
80625;SDS011;69982;51.758;5.784;2024-02-14T15:52:17;3.80;;;1.50;;
80625;SDS011;69982;51.758;5.784;2024-02-14T15:55:00;5.60;;;1.60;;
80625;SDS011;69982;51.758;5.784;2024-02-14T15:57:40;3.80;;;1.60;;
80625;SDS011;69982;51.758;5.784;2024-02-14T16:00:27;3.80;;;1.50;;
80625;SDS011;69982;51.758;5.784;2024-02-14T16:06:17;4.80;;;2.10;;
80625;SDS011;69982;51.758;5.784;2024-02-14T16:09:10;4.10;;;1.80;;
80625;SDS011;69982;51.758;5.784;2024-02-14T16:11:48;4.60;;;1.70;;
80625;SDS011;69982;51.758;5.784;2024-02-14T16:14:44;4.80;;;2.40;;
80625;SDS011;69982;51.758;5.784;2024-02-14T16:17:18;4.80;;;1.80;;
80625;SDS011;69982;51.758;5.784;2024-02-14T16:20:28;5.10;;;1.80;;
80625;SDS011;69982;51.758;5.784;2024-02-14T16:23:36;4.50;;;2.00;;
80625;SDS011;69982;51.758;5.784;2024-02-14T16:29:31;4.60;;;2.00;;
80625;SDS011;69982;51.758;5.784;2024-02-14T16:32:17;3.70;;;2.10;;
80625;SDS011;69982;51.758;5.784;2024-02-14T16:34:45;4.60;;;2.10;;
80625;SDS011;69982;51.758;5.784;2024-02-14T16:37:48;6.30;;;2.20;;
80625;SDS011;69982;51.758;5.784;2024-02-14T16:40:19;6.00;;;2.70;;
80625;SDS011;69982;51.758;5.784;2024-02-14T16:42:46;6.20;;;2.60;;
80625;SDS011;69982;51.758;5.784;2024-02-14T16:45:13;4.30;;;2.10;;
80625;SDS011;69982;51.758;5.784;2024-02-14T16:47:42;4.30;;;2.30;;
80625;SDS011;69982;51.758;5.784;2024-02-14T16:50:09;5.30;;;2.30;;
80625;SDS011;69982;51.758;5.784;2024-02-14T16:52:36;4.40;;;2.40;;
80625;SDS011;69982;51.758;5.784;2024-02-14T16:55:05;4.30;;;2.30;;
80625;SDS011;69982;51.758;5.784;2024-02-14T16:57:33;5.90;;;2.50;;
80625;SDS011;69982;51.758;5.784;2024-02-14T17:00:02;5.60;;;2.30;;
80625;SDS011;69982;51.758;5.784;2024-02-14T17:02:30;4.20;;;2.20;;
80625;SDS011;69982;51.758;5.784;2024-02-14T17:04:59;6.30;;;2.90;;
80625;SDS011;69982;51.758;5.784;2024-02-14T17:07:27;9.20;;;4.10;;
80625;SDS011;69982;51.758;5.784;2024-02-14T17:09:54;5.20;;;2.90;;
80625;SDS011;69982;51.758;5.784;2024-02-14T17:12:27;5.50;;;2.50;;
80625;SDS011;69982;51.758;5.784;2024-02-14T17:14:55;7.00;;;2.70;;
80625;SDS011;69982;51.758;5.784;2024-02-14T17:17:25;4.70;;;2.50;;